Time;durP1;ratioP1;P1;durP2;ratioP2;P2;SDS_P1;SDS_P2;PMS_P1;PMS_P2;Temp;Humidity;BMP_temperature;BMP_pressure;BME280_temperature;BME280_humidity;BME280_pressure;Samples;Min_cycle;Max_cycle;Signal;HPM_P1;HPM_P2
2022/07/31 00:01:14;;;;;;;3.05;0.98;;;21.50;74.30;;;;;;5054488;28;20044;-67
2022/07/31 00:03:40;;;;;;;1.77;0.80;;;21.60;75.50;;;;;;5046506;28;20054;-75
2022/07/31 00:06:07;;;;;;;2.15;1.05;;;21.60;75.60;;;;;;5049560;28;20082;-67
2022/07/31 00:08:33;;;;;;;1.50;0.80;;;21.50;74.70;;;;;;5054802;28;20064;-67
2022/07/31 00:10:59;;;;;;;1.65;0.90;;;21.60;74.60;;;;;;5048507;28;20124;-67
2022/07/31 00:13:25;;;;;;;1.35;0.80;;;21.60;75.70;;;;;;5051490;28;20573;-67
2022/07/31 00:15:50;;;;;;;1.45;1.15;;;21.50;76.50;;;;;;5053490;28;20041;-67
2022/07/31 00:18:16;;;;;;;2.67;0.70;;;21.30;76.40;;;;;;5054645;28;20128;-67
2022/07/31 00:20:43;;;;;;;2.67;1.02;;;;;;;;;;5054529;28;20143;-66
2022/07/31 00:23:09;;;;;;;1.17;0.80;;;21.20;90.20;;;;;;5054490;28;20037;-67
2022/07/31 00:25:35;;;;;;;2.35;1.08;;;21.10;76.60;;;;;;5054484;28;20381;-68
2022/07/31 00:28:02;;;;;;;1.52;0.82;;;21.10;76.70;;;;;;5050337;28;20051;-66
2022/07/31 00:30:28;;;;;;;1.27;0.88;;;21.20;76.30;;;;;;5059293;28;20040;-67
2022/07/31 00:32:53;;;;;;;3.40;0.80;;;21.20;76.50;;;;;;5051266;28;20047;-67
2022/07/31 00:35:19;;;;;;;1.77;0.90;;;21.10;76.80;;;;;;5051029;28;20148;-72
2022/07/31 00:37:45;;;;;;;1.48;0.90;;;21.00;77.00;;;;;;5052621;28;20502;-67
2022/07/31 00:40:14;;;;;;;0.70;0.70;;;20.90;84.40;;;;;;5052135;28;20041;-67
2022/07/31 00:42:40;;;;;;;2.03;1.00;;;20.90;78.10;;;;;;5053215;28;20531;-66
2022/07/31 00:45:07;;;;;;;1.75;1.00;;;20.90;78.00;;;;;;5054120;28;20037;-67
2022/07/31 00:47:32;;;;;;;1.25;0.75;;;20.90;78.10;;;;;;5054032;28;20075;-67
2022/07/31 00:49:58;;;;;;;1.33;0.80;;;20.90;78.80;;;;;;5054183;28;20094;-67
2022/07/31 00:52:24;;;;;;;2.20;1.00;;;20.80;79.00;;;;;;5054032;28;20569;-70
2022/07/31 00:54:50;;;;;;;3.60;1.20;;;20.70;79.20;;;;;;5053710;28;20037;-67
2022/07/31 00:57:16;;;;;;;1.90;1.20;;;20.70;79.10;;;;;;5061934;28;20044;-67
2022/07/31 00:59:42;;;;;;;3.10;1.17;;;20.80;78.60;;;;;;5060265;28;20451;-73
2022/07/31 01:02:08;;;;;;;2.58;1.10;;;20.90;78.20;;;;;;5070677;28;20123;-74
2022/07/31 01:04:35;;;;;;;1.83;1.23;;;20.90;78.20;;;;;;5073510;28;20086;-67
2022/07/31 01:07:01;;;;;;;2.10;0.85;;;20.90;78.00;;;;;;5071477;28;20761;-67
2022/07/31 01:09:28;;;;;;;0.77;0.73;;;20.90;78.00;;;;;;5072358;28;20043;-71
2022/07/31 01:12:06;;;;;;;1.20;0.70;;;21.00;77.70;;;;;;5073471;28;20099;-68
2022/07/31 01:14:37;;;;;;;2.22;0.90;;;21.00;78.10;;;;;;5072642;28;20039;-66
2022/07/31 01:17:05;;;;;;;2.20;0.93;;;21.10;78.00;;;;;;5052445;28;20420;-67
2022/07/31 01:19:40;;;;;;;1.15;0.80;;;21.10;78.20;;;;;;5053849;28;20041;-69
2022/07/31 01:22:44;;;;;;;1.52;0.82;;;21.00;79.10;;;;;;5051389;28;20044;-71
2022/07/31 01:26:11;;;;;;;2.53;0.95;;;21.10;78.00;;;;;;5060474;28;20043;-66
2022/07/31 01:29:14;;;;;;;2.45;0.90;;;21.10;77.50;;;;;;4999592;28;20045;-67
2022/07/31 01:32:12;;;;;;;7.50;1.55;;;21.20;77.00;;;;;;5052244;28;20049;-66
2022/07/31 01:34:43;;;;;;;2.35;0.88;;;21.20;77.60;;;;;;5052405;28;20064;-75
2022/07/31 01:37:20;;;;;;;2.20;0.75;;;21.00;77.70;;;;;;5060494;28;20037;-67
2022/07/31 01:40:10;;;;;;;1.98;1.40;;;21.00;78.20;;;;;;5054158;28;20049;-67
2022/07/31 01:42:39;;;;;;;4.07;0.90;;;21.10;78.00;;;;;;5059977;28;20040;-68
2022/07/31 01:45:09;;;;;;;1.75;1.00;;;21.10;78.10;;;;;;5067236;28;20124;-73
2022/07/31 01:47:35;;;;;;;1.43;0.90;;;21.00;78.00;;;;;;5052614;28;20601;-67
2022/07/31 01:50:04;;;;;;;2.35;0.90;;;21.10;78.00;;;;;;5051873;28;20033;-67
2022/07/31 01:52:31;;;;;;;1.60;0.88;;;21.00;78.30;;;;;;5052765;28;20468;-67
2022/07/31 01:54:59;;;;;;;3.50;0.95;;;21.00;77.90;;;;;;5052557;28;20048;-73
2022/07/31 01:57:28;;;;;;;1.25;0.98;;;21.00;78.00;;;;;;5052728;28;20094;-72
2022/07/31 01:59:59;;;;;;;0.90;0.80;;;20.90;78.40;;;;;;5052596;28;20106;-67
2022/07/31 02:02:27;;;;;;;2.13;0.93;;;20.90;78.40;;;;;;5052667;28;20040;-68
2022/07/31 02:04:54;;;;;;;1.33;0.90;;;20.90;78.30;;;;;;5052470;28;20049;-68
2022/07/31 02:07:21;;;;;;;1.35;0.73;;;21.00;78.20;;;;;;5055273;28;20036;-67
2022/07/31 02:09:49;;;;;;;1.42;0.75;;;20.90;78.70;;;;;;5055958;28;20171;-67
2022/07/31 02:12:16;;;;;;;1.00;0.88;;;20.70;78.90;;;;;;5060058;28;20055;-71
2022/07/31 02:14:43;;;;;;;2.20;1.00;;;20.70;78.80;;;;;;5072649;28;20037;-66
2022/07/31 02:17:12;;;;;;;0.82;0.73;;;20.70;79.10;;;;;;5072620;28;20053;-67
2022/07/31 02:19:40;;;;;;;1.63;0.85;;;20.70;78.50;;;;;;5071033;28;20079;-71
2022/07/31 02:22:06;;;;;;;2.15;0.90;;;20.80;78.30;;;;;;5072398;28;20036;-67
2022/07/31 02:24:33;;;;;;;2.67;0.98;;;20.70;78.40;;;;;;5071485;28;20569;-66
2022/07/31 02:27:00;;;;;;;1.38;0.88;;;20.70;78.40;;;;;;5072637;28;20083;-67
2022/07/31 02:29:29;;;;;;;0.80;0.80;;;20.90;78.20;;;;;;5071112;28;20075;-68
2022/07/31 02:31:58;;;;;;;2.42;0.98;;;20.90;78.20;;;;;;5072371;28;20083;-69
2022/07/31 02:34:25;;;;;;;1.45;0.82;;;20.80;78.10;;;;;;5072640;28;20036;-73
2022/07/31 02:36:53;;;;;;;3.45;1.10;;;20.90;78.00;;;;;;5071242;28;20422;-69
2022/07/31 02:39:21;;;;;;;2.95;0.95;;;21.00;77.70;;;;;;5055369;28;20091;-66
2022/07/31 02:41:49;;;;;;;1.55;1.00;;;21.10;77.80;;;;;;5053786;28;20044;-68
2022/07/31 02:44:16;;;;;;;3.42;1.00;;;21.10;77.30;;;;;;5063220;28;20041;-70
2022/07/31 02:46:43;;;;;;;1.55;0.93;;;21.10;77.30;;;;;;5056230;28;20098;-66
2022/07/31 02:49:12;;;;;;;1.05;0.70;;;21.00;77.60;;;;;;5069275;28;20044;-70
2022/07/31 02:51:41;;;;;;;2.53;1.05;;;20.80;78.00;;;;;;5065034;28;20408;-75
2022/07/31 02:54:11;;;;;;;1.58;0.93;;;20.80;78.00;;;;;;5069934;28;20067;-70
2022/07/31 02:56:37;;;;;;;1.30;0.82;;;20.90;77.90;;;;;;5068137;28;20044;-66
2022/07/31 02:59:03;;;;;;;1.75;0.90;;;20.80;78.00;;;;;;5056321;28;20496;-69
2022/07/31 03:01:34;;;;;;;1.13;1.00;;;20.70;78.80;;;;;;5050369;28;20060;-73
2022/07/31 03:04:00;;;;;;;4.32;1.10;;;20.60;78.90;;;;;;5058869;28;20130;-75
2022/07/31 03:06:26;;;;;;;2.80;1.20;;;20.70;78.50;;;;;;5062918;28;20131;-68
2022/07/31 03:08:52;;;;;;;2.70;0.85;;;20.60;78.70;;;;;;5060152;28;20109;-74
2022/07/31 03:11:18;;;;;;;2.78;0.90;;;20.60;78.70;;;;;;5063144;28;20447;-69
2022/07/31 03:13:46;;;;;;;2.63;1.00;;;20.50;79.00;;;;;;5060865;28;20115;-66
2022/07/31 03:16:13;;;;;;;1.10;0.77;;;20.50;78.80;;;;;;5061909;28;20052;-74
2022/07/31 03:18:39;;;;;;;2.05;1.35;;;20.50;78.80;;;;;;5053350;28;20037;-70
2022/07/31 03:21:08;;;;;;;1.83;1.15;;;20.50;78.70;;;;;;5054165;28;20053;-75
2022/07/31 03:23:37;;;;;;;3.63;1.02;;;20.50;78.90;;;;;;5053045;28;20028;-77
2022/07/31 03:26:06;;;;;;;1.05;0.95;;;20.50;78.50;;;;;;5051268;28;20068;-68
2022/07/31 03:28:35;;;;;;;2.00;1.05;;;20.40;78.50;;;;;;5054180;28;20033;-70
2022/07/31 03:31:01;;;;;;;4.43;0.93;;;20.60;78.20;;;;;;5046256;28;20400;-70
2022/07/31 03:33:27;;;;;;;2.70;1.05;;;20.60;77.90;;;;;;5034770;28;20172;-70
2022/07/31 03:35:53;;;;;;;1.80;1.00;;;20.60;77.90;;;;;;5035416;28;20135;-75
2022/07/31 03:38:19;;;;;;;1.77;0.80;;;20.70;77.80;;;;;;5035461;28;20045;-74
2022/07/31 03:40:45;;;;;;;0.75;0.65;;;20.70;78.00;;;;;;5035207;28;20049;-74
2022/07/31 03:43:13;;;;;;;1.08;0.77;;;20.50;78.00;;;;;;5036250;28;20037;-69
2022/07/31 03:45:40;;;;;;;1.48;0.80;;;20.60;77.80;;;;;;5035566;28;20064;-67
2022/07/31 03:48:09;;;;;;;4.88;1.00;;;20.60;77.80;;;;;;5035215;28;20530;-70
2022/07/31 03:50:36;;;;;;;2.83;1.58;;;20.50;78.70;;;;;;5041992;28;20041;-67
2022/07/31 03:53:04;;;;;;;1.58;0.82;;;20.50;78.20;;;;;;5041624;28;20049;-67
2022/07/31 03:55:34;;;;;;;1.92;0.90;;;20.50;78.00;;;;;;5059707;28;20079;-68
2022/07/31 03:58:02;;;;;;;2.90;0.93;;;20.70;77.60;;;;;;5053921;28;20048;-67
2022/07/31 04:00:30;;;;;;;1.73;1.17;;;20.70;77.30;;;;;;5050032;28;20044;-67
2022/07/31 04:02:56;;;;;;;1.15;0.80;;;20.80;77.10;;;;;;5058446;28;20538;-67
2022/07/31 04:05:26;;;;;;;1.92;1.08;;;20.90;76.80;;;;;;5056244;28;20048;-68
2022/07/31 04:07:52;;;;;;;2.33;1.10;;;20.90;76.60;;;;;;5054607;28;20036;-67
2022/07/31 04:10:18;;;;;;;3.65;1.10;;;20.90;77.10;;;;;;5052569;28;20447;-67
2022/07/31 04:12:44;;;;;;;1.60;1.33;;;20.60;79.40;;;;;;5053007;28;20037;-67
2022/07/31 04:15:09;;;;;;;2.22;0.82;;;20.40;80.00;;;;;;5053493;28;20403;-68
2022/07/31 04:17:38;;;;;;;3.13;1.33;;;20.50;78.60;;;;;;5059501;28;20032;-69
2022/07/31 04:20:04;;;;;;;2.35;1.27;;;20.40;78.70;;;;;;5056587;28;20048;-68
2022/07/31 04:22:30;;;;;;;1.60;1.05;;;20.30;78.70;;;;;;5070538;28;20060;-68
2022/07/31 04:24:56;;;;;;;1.50;1.27;;;20.40;78.30;;;;;;5071264;28;20037;-68
2022/07/31 04:27:22;;;;;;;1.10;0.85;;;20.50;80.10;;;;;;5072122;28;20059;-68
2022/07/31 04:29:48;;;;;;;1.13;0.93;;;20.40;81.20;;;;;;5074074;28;20048;-68
2022/07/31 04:32:14;;;;;;;1.02;0.90;;;20.20;79.80;;;;;;5061723;28;20037;-68
2022/07/31 04:34:40;;;;;;;2.13;1.00;;;20.10;80.00;;;;;;5068329;28;20529;-69
2022/07/31 04:37:07;;;;;;;6.18;0.98;;;20.00;79.80;;;;;;5061299;28;20127;-70
2022/07/31 04:39:33;;;;;;;3.05;1.10;;;20.10;79.60;;;;;;5053940;28;20158;-68
2022/07/31 04:41:58;;;;;;;3.13;1.00;;;20.10;79.20;;;;;;5053932;28;20079;-68
2022/07/31 04:44:24;;;;;;;1.55;1.30;;;20.20;78.90;;;;;;5052312;28;20108;-68
2022/07/31 04:46:50;;;;;;;2.80;1.08;;;20.30;78.80;;;;;;5053613;28;20044;-69
2022/07/31 04:49:16;;;;;;;1.17;1.00;;;20.30;78.70;;;;;;5053773;28;20075;-68
2022/07/31 04:51:41;;;;;;;1.23;0.90;;;20.40;78.50;;;;;;5053559;28;20044;-69
2022/07/31 04:54:09;;;;;;;3.50;1.27;;;20.30;78.70;;;;;;5053648;28;20040;-70
2022/07/31 04:56:36;;;;;;;3.95;1.00;;;20.30;78.70;;;;;;5055884;28;20124;-69
2022/07/31 04:59:05;;;;;;;2.90;1.67;;;20.40;78.70;;;;;;5055328;28;20090;-68
2022/07/31 05:01:31;;;;;;;5.95;0.80;;;20.30;79.20;;;;;;5068279;28;20063;-68
2022/07/31 05:03:57;;;;;;;1.65;1.10;;;20.20;79.20;;;;;;5054424;28;20044;-68
2022/07/31 05:06:51;;;;;;;2.50;1.10;;;20.20;79.10;;;;;;5053768;28;20032;-69
2022/07/31 05:09:21;;;;;;;1.33;1.02;;;20.30;80.50;;;;;;5053245;28;20102;-68
2022/07/31 05:11:48;;;;;;;3.53;1.00;;;20.30;80.60;;;;;;5052326;28;20098;-70
2022/07/31 05:14:15;;;;;;;1.52;1.17;;;20.30;80.10;;;;;;5054557;28;20041;-69
2022/07/31 05:16:41;;;;;;;1.25;0.93;;;20.30;79.70;;;;;;5053464;28;20041;-69
2022/07/31 05:19:07;;;;;;;1.90;1.02;;;20.40;79.20;;;;;;5054417;28;20044;-70
2022/07/31 05:21:33;;;;;;;3.22;0.90;;;20.50;79.00;;;;;;5068132;28;20052;-68
2022/07/31 05:24:00;;;;;;;1.48;1.08;;;20.60;78.90;;;;;;5052907;28;20098;-67
2022/07/31 05:26:27;;;;;;;2.15;1.30;;;20.60;78.90;;;;;;5052530;28;20044;-66
2022/07/31 05:28:54;;;;;;;7.85;1.17;;;20.70;78.60;;;;;;5051511;28;20072;-66
2022/07/31 05:31:21;;;;;;;2.08;0.90;;;20.80;78.90;;;;;;5063074;28;20040;-67
2022/07/31 05:33:48;;;;;;;2.00;1.02;;;21.10;77.70;;;;;;5069481;28;20048;-66
2022/07/31 05:36:15;;;;;;;6.35;1.23;;;21.10;78.40;;;;;;5054794;28;20055;-66
2022/07/31 05:38:41;;;;;;;2.85;1.38;;;21.10;78.10;;;;;;5054086;28;20041;-68
2022/07/31 05:41:07;;;;;;;1.52;0.98;;;21.30;77.60;;;;;;5052143;28;20048;-67
2022/07/31 05:43:34;;;;;;;2.17;1.00;;;21.50;79.00;;;;;;5049881;28;20451;-67
2022/07/31 05:46:00;;;;;;;3.60;0.90;;;21.60;77.10;;;;;;5050775;28;20053;-66
2022/07/31 05:48:26;;;;;;;1.83;1.10;;;21.60;77.10;;;;;;5050835;28;20091;-65
2022/07/31 05:50:52;;;;;;;1.35;0.90;;;21.80;76.30;;;;;;5051161;28;20048;-69
2022/07/31 05:53:19;;;;;;;1.50;1.08;;;22.30;78.60;;;;;;5050584;28;20064;-66
2022/07/31 05:55:49;;;;;;;1.80;0.98;;;22.20;76.40;;;;;;5050579;28;20094;-67
2022/07/31 05:58:17;;;;;;;1.90;1.25;;;22.40;76.20;;;;;;5050420;28;20086;-67
2022/07/31 06:00:45;;;;;;;1.67;1.10;;;22.50;76.00;;;;;;5050536;28;20507;-68
2022/07/31 06:03:12;;;;;;;1.95;1.13;;;22.80;77.60;;;;;;5050260;28;20041;-68
2022/07/31 06:05:39;;;;;;;1.45;0.90;;;22.70;92.40;;;;;;5050195;28;20083;-66
2022/07/31 06:08:05;;;;;;;2.92;1.20;;;;;;;;;;5050180;28;20249;-68
2022/07/31 06:10:31;;;;;;;0.98;0.80;;;23.10;98.20;;;;;;5049090;28;20056;-66
2022/07/31 06:12:57;;;;;;;2.75;1.00;;;;;;;;;;5050980;28;20029;-66
2022/07/31 06:15:23;;;;;;;1.88;1.13;;;23.40;74.30;;;;;;5044679;28;20060;-66
2022/07/31 06:17:49;;;;;;;1.15;1.05;;;23.50;73.30;;;;;;5052284;28;20029;-65
2022/07/31 06:20:15;;;;;;;2.97;1.50;;;23.60;74.00;;;;;;5054206;28;20060;-66
2022/07/31 06:22:44;;;;;;;1.65;0.90;;;23.80;73.40;;;;;;5054520;28;20090;-66
2022/07/31 06:25:11;;;;;;;7.60;1.67;;;23.90;74.20;;;;;;5055238;28;20037;-66
2022/07/31 06:27:37;;;;;;;1.27;1.00;;;24.00;73.90;;;;;;5054548;28;20067;-67
2022/07/31 06:30:04;;;;;;;5.18;1.48;;;24.10;74.60;;;;;;5054273;28;20110;-66
2022/07/31 06:32:31;;;;;;;1.42;0.95;;;24.20;74.40;;;;;;5054443;28;20044;-65
2022/07/31 06:34:57;;;;;;;3.35;1.33;;;24.40;73.80;;;;;;5054091;28;20047;-65
2022/07/31 06:37:24;;;;;;;2.35;1.27;;;24.80;74.70;;;;;;5054521;28;20071;-65
2022/07/31 06:39:50;;;;;;;1.65;1.10;;;25.40;72.80;;;;;;5053680;28;20151;-66
2022/07/31 06:42:20;;;;;;;2.55;0.90;;;25.50;72.70;;;;;;5053842;28;20563;-65
2022/07/31 06:44:46;;;;;;;1.58;0.88;;;25.90;74.20;;;;;;5054126;28;20051;-66
2022/07/31 06:47:12;;;;;;;1.05;0.95;;;26.30;73.60;;;;;;5053969;28;20095;-66
2022/07/31 06:49:39;;;;;;;2.03;1.10;;;26.60;72.30;;;;;;5054247;28;20083;-66
2022/07/31 06:52:05;;;;;;;2.70;0.95;;;26.80;71.50;;;;;;5053855;28;20048;-67
2022/07/31 06:54:31;;;;;;;3.58;1.15;;;26.90;71.00;;;;;;5053473;28;20041;-66
2022/07/31 06:56:57;;;;;;;0.98;0.88;;;27.10;70.70;;;;;;5053549;28;20086;-66
2022/07/31 06:59:23;;;;;;;2.17;1.17;;;27.40;70.60;;;;;;5054714;28;20049;-66
2022/07/31 07:01:49;;;;;;;1.67;0.93;;;27.60;70.60;;;;;;5054851;28;20447;-66
2022/07/31 07:04:14;;;;;;;2.10;1.00;;;27.70;69.30;;;;;;5053951;28;20036;-66
2022/07/31 07:06:40;;;;;;;5.45;1.10;;;27.80;70.50;;;;;;5054030;28;20086;-66
2022/07/31 07:09:06;;;;;;;0.95;0.70;;;27.90;69.20;;;;;;5053956;28;20040;-67
2022/07/31 07:11:32;;;;;;;0.93;0.80;;;27.80;68.30;;;;;;5053956;28;20076;-66
2022/07/31 07:13:58;;;;;;;1.08;0.90;;;28.00;68.50;;;;;;5053739;28;20040;-67
2022/07/31 07:16:23;;;;;;;3.08;1.10;;;28.30;68.30;;;;;;5054000;28;20036;-66
2022/07/31 07:18:49;;;;;;;3.40;1.20;;;28.00;70.00;;;;;;5054772;28;20047;-66
2022/07/31 07:21:15;;;;;;;1.85;1.20;;;28.50;69.70;;;;;;5051357;28;20045;-66
2022/07/31 07:23:41;;;;;;;2.72;0.95;;;28.70;68.30;;;;;;5052297;28;20504;-66
2022/07/31 07:26:07;;;;;;;3.92;1.30;;;28.30;67.00;;;;;;5053308;28;20409;-66
2022/07/31 07:28:33;;;;;;;1.83;0.80;;;28.80;68.60;;;;;;5052887;28;20037;-67
2022/07/31 07:31:00;;;;;;;2.08;1.13;;;29.00;67.80;;;;;;5053369;28;20381;-67
2022/07/31 07:33:25;;;;;;;3.10;0.90;;;28.90;67.10;;;;;;5053477;28;20033;-67
2022/07/31 07:35:51;;;;;;;1.92;1.10;;;29.00;67.50;;;;;;5053392;28;20048;-66
2022/07/31 07:38:17;;;;;;;2.55;0.98;;;29.20;67.80;;;;;;5054533;28;20040;-66
2022/07/31 07:40:43;;;;;;;2.88;0.80;;;29.40;66.60;;;;;;5053382;28;20041;-67
2022/07/31 07:43:09;;;;;;;3.42;0.90;;;29.60;65.80;;;;;;5054083;28;20061;-67
2022/07/31 07:45:34;;;;;;;5.07;0.90;;;29.10;66.60;;;;;;5055123;28;20080;-67
2022/07/31 07:48:00;;;;;;;1.38;0.90;;;29.40;67.20;;;;;;5053526;28;20663;-67
2022/07/31 07:50:26;;;;;;;1.88;1.10;;;29.20;65.90;;;;;;5053035;28;20065;-66
2022/07/31 07:52:52;;;;;;;3.60;0.88;;;29.60;67.30;;;;;;5053286;28;20447;-66
2022/07/31 07:55:17;;;;;;;1.40;0.90;;;29.90;65.50;;;;;;5053528;28;20124;-67
2022/07/31 07:57:44;;;;;;;1.17;0.60;;;30.10;65.70;;;;;;5053007;28;20053;-67
2022/07/31 08:00:11;;;;;;;2.25;0.63;;;28.90;66.20;;;;;;5052699;28;20416;-67
2022/07/31 08:02:37;;;;;;;1.02;0.88;;;29.20;66.50;;;;;;5052786;28;20045;-66
2022/07/31 08:05:05;;;;;;;0.80;0.80;;;29.30;65.10;;;;;;5052137;28;20087;-67
2022/07/31 08:07:34;;;;;;;2.47;1.00;;;29.50;65.40;;;;;;5052532;28;20056;-66
2022/07/31 08:10:01;;;;;;;2.88;1.00;;;29.00;66.10;;;;;;5052419;28;20496;-67
2022/07/31 08:12:27;;;;;;;1.40;1.08;;;30.00;65.40;;;;;;5052779;28;20054;-67
2022/07/31 08:14:53;;;;;;;1.27;0.70;;;29.50;65.40;;;;;;5053777;28;20531;-67
2022/07/31 08:17:19;;;;;;;2.03;1.00;;;29.40;64.50;;;;;;5053211;28;20113;-67
2022/07/31 08:19:45;;;;;;;1.20;1.00;;;28.50;65.30;;;;;;5050305;28;20044;-67
2022/07/31 08:22:11;;;;;;;1.00;0.90;;;28.80;65.50;;;;;;5052118;28;20040;-67
2022/07/31 08:24:37;;;;;;;1.15;0.70;;;29.00;65.80;;;;;;5052034;28;20041;-67
2022/07/31 08:29:48;;;;;;;1.85;1.00;;;28.90;65.00;;;;;;5052383;28;20043;-66
2022/07/31 08:32:14;;;;;;;2.42;0.90;;;29.20;65.70;;;;;;5051914;28;20048;-67
2022/07/31 08:34:40;;;;;;;0.93;0.80;;;29.60;66.60;;;;;;5053347;28;20041;-65
2022/07/31 08:37:06;;;;;;;3.63;1.23;;;30.00;64.60;;;;;;5051789;28;20093;-65
2022/07/31 08:39:32;;;;;;;2.55;0.95;;;29.20;64.70;;;;;;5051117;28;20068;-65
2022/07/31 08:41:58;;;;;;;1.00;0.73;;;29.70;64.90;;;;;;5051818;28;20044;-65
2022/07/31 08:44:24;;;;;;;3.25;0.80;;;29.90;64.50;;;;;;5051956;28;20047;-64
2022/07/31 08:46:53;;;;;;;2.22;1.02;;;30.30;65.30;;;;;;5051550;28;20041;-65
2022/07/31 08:49:24;;;;;;;1.37;1.00;;;30.00;64.20;;;;;;5049880;28;20036;-65
2022/07/31 08:51:50;;;;;;;2.63;0.88;;;29.20;65.00;;;;;;5051467;28;20075;-66
2022/07/31 08:54:17;;;;;;;2.45;1.40;;;28.40;65.40;;;;;;5051727;28;20409;-66
2022/07/31 08:56:45;;;;;;;1.05;0.90;;;29.10;65.20;;;;;;5051904;28;20069;-66
2022/07/31 08:59:10;;;;;;;3.70;1.15;;;29.00;65.70;;;;;;5051456;28;20056;-66
2022/07/31 09:01:37;;;;;;;2.30;0.95;;;29.50;65.10;;;;;;5051480;28;20052;-66
2022/07/31 09:04:03;;;;;;;2.03;1.17;;;30.00;65.40;;;;;;5050855;28;20029;-66
2022/07/31 09:06:29;;;;;;;1.35;0.88;;;30.50;64.20;;;;;;5051278;28;20041;-66
2022/07/31 09:08:55;;;;;;;1.25;1.00;;;30.40;63.80;;;;;;5051555;28;20094;-65
2022/07/31 09:11:22;;;;;;;1.40;1.10;;;30.30;63.80;;;;;;5051479;28;20044;-65
2022/07/31 09:14:01;;;;;;;2.95;0.80;;;30.50;65.00;;;;;;5051437;28;20033;-65
2022/07/31 09:16:28;;;;;;;2.83;1.02;;;30.50;63.80;;;;;;5051607;28;20051;-65
2022/07/31 09:19:01;;;;;;;0.95;0.85;;;29.20;64.80;;;;;;5051599;28;20524;-65
2022/07/31 09:21:41;;;;;;;2.60;0.80;;;29.90;64.50;;;;;;5051467;28;20059;-66
2022/07/31 09:24:12;;;;;;;2.93;0.90;;;29.50;64.90;;;;;;5052730;28;20052;-65
2022/07/31 09:26:41;;;;;;;1.90;1.00;;;29.90;64.40;;;;;;5051321;28;20450;-65
2022/07/31 09:29:10;;;;;;;0.90;0.63;;;30.10;64.40;;;;;;5051024;28;20115;-65
2022/07/31 09:31:37;;;;;;;2.33;1.10;;;30.20;63.20;;;;;;5049770;28;20044;-65
2022/07/31 09:34:04;;;;;;;1.80;1.00;;;30.60;63.90;;;;;;5050722;28;20447;-64
2022/07/31 09:36:30;;;;;;;1.23;0.85;;;30.60;62.60;;;;;;5052822;28;20060;-64
2022/07/31 09:38:57;;;;;;;2.28;1.00;;;30.60;62.90;;;;;;5050674;28;20071;-65
2022/07/31 09:41:24;;;;;;;1.55;0.90;;;29.90;63.50;;;;;;5050927;28;20041;-64
2022/07/31 09:43:54;;;;;;;1.83;0.82;;;29.30;64.70;;;;;;5051037;28;20574;-65
2022/07/31 09:46:20;;;;;;;5.65;1.05;;;29.20;64.60;;;;;;5050019;28;20048;-64
2022/07/31 09:48:51;;;;;;;0.73;0.73;;;29.30;64.60;;;;;;5050414;28;20048;-64
2022/07/31 09:51:18;;;;;;;3.55;1.30;;;29.40;65.40;;;;;;5050382;28;20066;-65
2022/07/31 09:53:46;;;;;;;4.28;0.80;;;29.90;64.00;;;;;;5051164;28;20051;-65
2022/07/31 09:56:13;;;;;;;1.25;0.90;;;29.70;64.70;;;;;;5050953;28;20040;-65
2022/07/31 09:58:40;;;;;;;1.00;0.90;;;30.80;64.30;;;;;;5051064;28;20107;-65
2022/07/31 10:01:09;;;;;;;2.10;0.80;;;30.30;63.60;;;;;;5049360;28;20125;-64
2022/07/31 10:03:37;;;;;;;;;;;30.50;62.00;;;;;;5051241;28;20067;-65
2022/07/31 10:06:04;;;;;;;1.35;0.85;;;31.50;62.60;;;;;;5052259;28;19908;-65
2022/07/31 10:08:34;;;;;;;1.48;0.93;;;31.00;62.00;;;;;;5046136;28;20045;-65
2022/07/31 10:11:04;;;;;;;1.33;0.90;;;30.50;62.80;;;;;;5033808;28;20578;-65
2022/07/31 10:13:34;;;;;;;;;;;30.30;63.30;;;;;;5049377;28;20052;-65
2022/07/31 10:16:01;;;;;;;2.83;1.20;;;29.90;62.50;;;;;;5047516;28;19915;-65
2022/07/31 10:18:36;;;;;;;1.08;0.80;;;29.30;64.10;;;;;;5050922;28;20065;-65
2022/07/31 10:21:04;;;;;;;3.90;1.00;;;28.90;64.40;;;;;;5048889;28;20057;-64
2022/07/31 10:23:33;;;;;;;1.65;0.80;;;29.30;63.60;;;;;;5053002;28;20106;-65
2022/07/31 10:26:00;;;;;;;1.70;0.80;;;29.70;63.50;;;;;;5051398;28;20056;-65
2022/07/31 10:28:28;;;;;;;0.80;0.80;;;;;;;;;;5050975;28;20029;-65
2022/07/31 10:30:55;;;;;;;3.22;0.90;;;30.60;64.30;;;;;;5051477;28;20217;-64
2022/07/31 10:33:22;;;;;;;1.60;1.00;;;31.50;62.50;;;;;;5052193;28;20094;-64
2022/07/31 10:36:11;;;;;;;1.60;0.93;;;30.50;61.50;;;;;;5050758;28;20037;-64
2022/07/31 10:38:46;;;;;;;3.42;0.80;;;29.40;63.00;;;;;;5050300;28;20098;-65
2022/07/31 10:41:35;;;;;;;1.20;0.85;;;29.80;63.50;;;;;;5051977;28;20055;-65
2022/07/31 10:44:35;;;;;;;3.38;1.08;;;29.60;65.30;;;;;;5046917;28;20033;-65
2022/07/31 10:47:14;;;;;;;2.70;1.33;;;29.70;63.00;;;;;;5052597;28;20037;-65
2022/07/31 10:49:47;;;;;;;2.90;1.20;;;29.90;64.10;;;;;;5048078;28;20037;-66
2022/07/31 10:52:31;;;;;;;1.75;1.00;;;29.70;63.20;;;;;;5049451;28;20474;-65
2022/07/31 10:55:00;;;;;;;1.27;0.80;;;29.30;64.50;;;;;;5048053;28;20060;-66
2022/07/31 10:57:32;;;;;;;2.30;1.08;;;28.50;63.90;;;;;;5047793;28;20037;-65
2022/07/31 11:00:19;;;;;;;0.98;0.73;;;28.40;64.50;;;;;;5041002;28;20057;-65
2022/07/31 11:02:46;;;;;;;1.73;1.15;;;28.80;65.70;;;;;;5043110;28;20532;-65
2022/07/31 11:05:20;;;;;;;5.93;1.10;;;29.10;64.20;;;;;;5039543;28;20095;-65
2022/07/31 11:07:46;;;;;;;1.13;0.95;;;29.30;65.70;;;;;;5046094;28;20044;-65
2022/07/31 11:10:19;;;;;;;1.45;0.93;;;29.30;64.30;;;;;;5054541;28;20029;-65
2022/07/31 11:12:57;;;;;;;0.95;0.82;;;29.60;66.40;;;;;;5056150;28;20116;-65
2022/07/31 11:15:24;;;;;;;2.35;1.00;;;29.80;64.90;;;;;;5055071;28;20419;-65
2022/07/31 11:17:51;;;;;;;2.30;1.08;;;29.50;65.40;;;;;;5055456;28;20045;-65
2022/07/31 11:20:27;;;;;;;1.60;0.98;;;30.10;65.60;;;;;;5055777;28;20041;-65
2022/07/31 11:23:04;;;;;;;5.97;1.35;;;29.80;63.70;;;;;;5055788;28;20036;-65
2022/07/31 11:25:34;;;;;;;1.33;0.90;;;28.90;63.20;;;;;;5055802;28;20128;-66
2022/07/31 11:28:17;;;;;;;2.30;0.95;;;28.50;64.00;;;;;;5055733;28;20029;-65
2022/07/31 11:30:58;;;;;;;2.85;1.05;;;28.90;63.80;;;;;;5055731;28;20060;-65
2022/07/31 11:33:50;;;;;;;1.15;0.93;;;30.10;65.70;;;;;;5055464;28;20399;-65
2022/07/31 11:36:23;;;;;;;1.45;0.63;;;31.00;63.30;;;;;;5054034;28;20041;-65
2022/07/31 11:38:51;;;;;;;1.00;0.82;;;30.70;62.60;;;;;;5055461;28;20508;-65
2022/07/31 11:41:20;;;;;;;0.88;0.70;;;30.60;62.10;;;;;;5055339;28;20118;-65
2022/07/31 11:43:48;;;;;;;0.98;0.73;;;30.10;62.80;;;;;;5055684;28;20052;-65
2022/07/31 11:46:25;;;;;;;0.88;0.82;;;29.50;63.20;;;;;;5055544;28;20078;-65
2022/07/31 11:48:52;;;;;;;4.72;0.88;;;29.20;64.50;;;;;;5055199;28;20033;-66
2022/07/31 11:51:19;;;;;;;2.58;1.15;;;28.70;64.60;;;;;;5055012;28;20044;-65
2022/07/31 11:53:45;;;;;;;2.50;1.02;;;29.10;64.50;;;;;;5054890;28;20033;-65
2022/07/31 11:56:11;;;;;;;1.88;0.90;;;29.40;63.50;;;;;;5054829;28;20098;-66
2022/07/31 11:58:40;;;;;;;1.88;0.90;;;29.50;63.10;;;;;;5054875;28;20048;-65
2022/07/31 12:01:06;;;;;;;5.18;0.82;;;29.60;62.60;;;;;;5055086;28;20053;-65
2022/07/31 12:03:36;;;;;;;0.70;0.63;;;30.00;62.00;;;;;;5055099;28;20563;-65
2022/07/31 12:06:04;;;;;;;6.30;1.20;;;30.30;61.70;;;;;;5055074;28;20417;-65
2022/07/31 12:08:30;;;;;;;1.17;0.73;;;30.40;61.10;;;;;;5055120;28;20538;-65
2022/07/31 12:10:58;;;;;;;1.23;0.82;;;30.80;61.40;;;;;;5054889;28;20045;-65
2022/07/31 12:13:26;;;;;;;1.73;0.85;;;30.90;60.90;;;;;;5054784;28;20033;-65
2022/07/31 12:16:03;;;;;;;1.25;0.95;;;30.90;62.50;;;;;;5054705;28;20063;-65
2022/07/31 12:18:30;;;;;;;0.90;0.60;;;30.40;61.90;;;;;;5054739;28;20037;-66
2022/07/31 12:21:01;;;;;;;1.13;0.80;;;29.30;77.00;;;;;;5054722;28;20049;-65
2022/07/31 12:23:45;;;;;;;0.82;0.80;;;29.00;63.10;;;;;;5054523;28;20523;-66
2022/07/31 12:26:22;;;;;;;1.20;0.90;;;29.00;63.90;;;;;;5055012;28;20041;-65
2022/07/31 12:29:00;;;;;;;1.25;1.00;;;28.90;62.40;;;;;;5054518;28;20040;-66
2022/07/31 12:31:27;;;;;;;1.33;1.00;;;29.10;62.90;;;;;;5054359;28;20150;-65
2022/07/31 12:33:53;;;;;;;2.72;1.05;;;29.10;63.30;;;;;;5054426;28;20447;-65
2022/07/31 12:36:19;;;;;;;1.17;0.80;;;29.90;62.40;;;;;;5054430;28;20040;-65
2022/07/31 12:38:56;;;;;;;1.58;0.90;;;29.90;61.60;;;;;;5054440;28;20044;-66
2022/07/31 12:41:22;;;;;;;1.65;1.00;;;29.80;62.20;;;;;;5053559;28;20053;-64
2022/07/31 12:43:48;;;;;;;1.17;0.90;;;29.70;61.90;;;;;;5053554;28;20099;-64
2022/07/31 12:46:16;;;;;;;1.65;0.85;;;29.50;62.60;;;;;;5053926;28;20045;-65
2022/07/31 12:48:41;;;;;;;4.10;1.20;;;29.30;62.70;;;;;;5052985;28;20044;-66
2022/07/31 12:51:07;;;;;;;1.52;1.00;;;29.60;63.30;;;;;;5050587;28;20049;-68
2022/07/31 12:53:33;;;;;;;1.98;0.90;;;30.30;62.70;;;;;;5048165;28;20534;-66
2022/07/31 12:56:00;;;;;;;2.25;0.80;;;30.60;62.00;;;;;;5044174;28;20535;-69
2022/07/31 12:58:26;;;;;;;1.10;0.88;;;29.90;62.00;;;;;;5051902;28;20074;-65